createdAt,value
2022-10-08T00:00:49.652Z,101021.88
2022-10-08T00:03:17.499Z,101014.63
2022-10-08T00:05:44.233Z,101008.09
2022-10-08T00:08:10.934Z,101008.09
2022-10-08T00:10:37.467Z,101006.22
2022-10-08T00:13:04.769Z,100997.88
2022-10-08T00:15:36.868Z,100998.97
2022-10-08T00:18:03.295Z,100996.88
2022-10-08T00:20:29.635Z,100994.50
2022-10-08T00:22:55.960Z,100987.13
2022-10-08T00:25:22.287Z,100988.22
2022-10-08T00:27:48.615Z,100983.91
2022-10-08T00:30:14.954Z,100985.22
2022-10-08T00:32:41.347Z,100982.47
2022-10-08T00:35:08.073Z,100983.59
2022-10-08T00:37:34.382Z,100976.53
2022-10-08T00:40:00.710Z,100974.31
2022-10-08T00:42:27.142Z,100970.59
2022-10-08T00:44:55.293Z,100964.19
2022-10-08T00:47:33.962Z,100966.59
2022-10-08T00:50:11.891Z,100967.88
2022-10-08T00:52:43.739Z,100963.22
2022-10-08T00:55:13.983Z,100970.94
2022-10-08T00:57:41.135Z,100967.28
2022-10-08T01:00:28.683Z,100970.16
2022-10-08T01:02:55.178Z,100970.38
2022-10-08T01:05:43.040Z,100969.19
2022-10-08T01:08:33.631Z,100963.25
2022-10-08T01:11:20.128Z,100965.47
2022-10-08T01:14:01.621Z,100962.47
2022-10-08T01:16:41.455Z,100961.03
2022-10-08T01:19:26.193Z,100956.22
2022-10-08T01:22:19.338Z,100953.63
2022-10-08T01:25:12.390Z,100958.53
2022-10-08T01:27:45.643Z,100954.13
2022-10-08T01:30:17.929Z,100956.38
2022-10-08T01:32:53.002Z,100951.25
2022-10-08T01:35:31.822Z,100949.19
2022-10-08T01:38:02.995Z,100945.06
2022-10-08T01:40:35.030Z,100953.56
2022-10-08T01:43:05.027Z,100950.00
2022-10-08T01:45:37.184Z,100944.38
2022-10-08T01:48:08.935Z,100949.53
2022-10-08T01:50:39.556Z,100945.13
2022-10-08T01:53:11.650Z,100940.00
2022-10-08T01:55:45.149Z,100939.84
2022-10-08T01:58:20.852Z,100939.25
2022-10-08T02:00:50.118Z,100937.44
2022-10-08T02:03:16.664Z,100939.03
2022-10-08T02:05:50.379Z,100940.97
2022-10-08T02:08:16.797Z,100945.75
2022-10-08T02:10:43.678Z,100955.38
2022-10-08T02:13:11.283Z,100951.94
2022-10-08T02:15:56.394Z,100947.09
2022-10-08T02:18:42.517Z,100938.25
2022-10-08T02:21:16.872Z,100937.47
2022-10-08T02:24:06.539Z,100939.25
2022-10-08T02:26:42.499Z,100940.41
2022-10-08T02:29:23.635Z,100932.00
2022-10-08T02:31:54.765Z,100942.75
2022-10-08T02:34:25.461Z,100935.94
2022-10-08T02:37:00.219Z,100930.81
2022-10-08T02:39:29.036Z,100934.81
2022-10-08T02:42:00.614Z,100932.53
2022-10-08T02:44:34.232Z,100931.81
2022-10-08T02:47:04.559Z,100929.56
2022-10-08T02:49:39.431Z,100929.03
2022-10-08T02:52:09.648Z,100925.50
2022-10-08T02:54:38.673Z,100924.47
2022-10-08T02:57:09.621Z,100921.47
2022-10-08T02:59:36.890Z,100919.75
2022-10-08T03:02:05.371Z,100920.47
2022-10-08T03:04:34.146Z,100921.13
2022-10-08T03:07:00.943Z,100924.44
2022-10-08T03:09:32.662Z,100932.16
2022-10-08T03:12:00.121Z,100925.97
2022-10-08T03:14:27.376Z,100923.81
2022-10-08T03:16:54.284Z,100929.09
2022-10-08T03:19:21.408Z,100922.56
2022-10-08T03:21:52.530Z,100931.72
2022-10-08T03:24:18.979Z,100932.41
2022-10-08T03:26:45.339Z,100937.66
2022-10-08T03:29:11.718Z,100933.00
2022-10-08T03:31:38.173Z,100929.00
2022-10-08T03:34:05.255Z,100921.66
2022-10-08T03:36:31.590Z,100925.25
2022-10-08T03:38:57.982Z,100930.75
2022-10-08T03:41:25.433Z,100939.19
2022-10-08T03:43:51.852Z,100928.94
2022-10-08T03:46:18.328Z,100934.44
2022-10-08T03:48:48.489Z,100935.22
2022-10-08T03:51:14.995Z,100934.91
2022-10-08T03:53:42.606Z,100931.66
2022-10-08T03:56:14.870Z,100929.59
2022-10-08T03:58:41.742Z,100926.31
2022-10-08T04:01:12.472Z,100929.59
2022-10-08T04:03:39.223Z,100926.88
2022-10-08T04:06:05.787Z,100924.88
2022-10-08T04:08:33.408Z,100925.63
2022-10-08T04:11:14.368Z,100931.16
2022-10-08T04:13:41.476Z,100925.38
2022-10-08T04:16:11.793Z,100926.75
2022-10-08T04:18:39.017Z,100924.25
2022-10-08T04:21:08.043Z,100918.81
2022-10-08T04:23:36.444Z,100921.97
2022-10-08T04:26:03.368Z,100923.00
2022-10-08T04:28:31.488Z,100924.13
2022-10-08T04:31:05.494Z,100917.06
2022-10-08T04:33:34.397Z,100915.09
2022-10-08T04:36:01.322Z,100921.63
2022-10-08T04:38:28.839Z,100909.78
2022-10-08T04:41:09.836Z,100921.75
2022-10-08T04:43:37.838Z,100917.88
2022-10-08T04:46:04.999Z,100917.22
2022-10-08T04:48:32.064Z,100916.97
2022-10-08T04:51:00.648Z,100921.91
2022-10-08T04:53:27.507Z,100921.47
2022-10-08T04:55:55.264Z,100919.50
2022-10-08T04:58:23.056Z,100916.97
2022-10-08T05:00:49.511Z,100911.31
2022-10-08T05:03:15.915Z,100913.22
2022-10-08T05:05:43.794Z,100918.00
2022-10-08T05:08:10.420Z,100919.06
2022-10-08T05:10:37.326Z,100918.94
2022-10-08T05:13:03.965Z,100920.88
2022-10-08T05:15:30.848Z,100918.16
2022-10-08T05:17:57.237Z,100917.47
2022-10-08T05:20:23.604Z,100923.41
2022-10-08T05:22:50.182Z,100923.81
2022-10-08T05:25:16.839Z,100919.41
2022-10-08T05:27:43.274Z,100921.34
2022-10-08T05:30:10.267Z,100925.53
2022-10-08T05:32:36.634Z,100921.22
2022-10-08T05:35:03.052Z,100921.25
2022-10-08T05:37:29.495Z,100923.13
2022-10-08T05:39:55.879Z,100918.69
2022-10-08T05:42:22.196Z,100924.00
2022-10-08T05:44:48.513Z,100920.28
2022-10-08T05:47:14.861Z,100916.94
2022-10-08T05:49:41.211Z,100917.47
2022-10-08T05:52:07.536Z,100908.78
2022-10-08T05:54:33.897Z,100913.09
2022-10-08T05:57:00.207Z,100914.44
2022-10-08T05:59:26.543Z,100911.81
2022-10-08T06:01:53.076Z,100913.94
2022-10-08T06:04:19.661Z,100921.28
2022-10-08T06:06:46.045Z,100912.34
2022-10-08T06:09:14.902Z,100912.06
2022-10-08T06:11:42.485Z,100911.78
2022-10-08T06:14:11.759Z,100907.00
2022-10-08T06:16:38.533Z,100908.50
2022-10-08T06:19:06.214Z,100917.97
2022-10-08T06:21:32.900Z,100925.50
2022-10-08T06:24:01.659Z,100925.19
2022-10-08T06:26:35.688Z,100923.59
2022-10-08T06:29:06.713Z,100921.69
2022-10-08T06:31:34.837Z,100933.72
2022-10-08T06:34:04.038Z,100937.59
2022-10-08T06:36:31.314Z,100936.28
2022-10-08T06:39:03.969Z,100936.44
2022-10-08T06:41:30.497Z,100945.75
2022-10-08T06:43:56.901Z,100950.72
2022-10-08T06:46:23.249Z,100942.03
2022-10-08T06:48:49.647Z,100942.03
2022-10-08T06:51:17.768Z,100940.13
2022-10-08T06:53:45.129Z,100947.13
2022-10-08T06:56:17.889Z,100956.19
2022-10-08T06:58:45.010Z,100949.81
2022-10-08T07:01:17.113Z,100952.25
2022-10-08T07:03:43.909Z,100958.56
2022-10-08T07:06:12.656Z,100964.75
2022-10-08T07:08:39.424Z,100955.72
2022-10-08T07:11:11.975Z,100965.00
2022-10-08T07:13:39.496Z,100965.09
2022-10-08T07:16:21.524Z,100961.19
2022-10-08T07:18:50.297Z,100961.19
2022-10-08T07:21:18.037Z,100958.59
2022-10-08T07:23:44.633Z,100958.19
2022-10-08T07:26:20.062Z,100958.69
2022-10-08T07:28:53.133Z,100963.06
2022-10-08T07:31:22.484Z,100961.34
2022-10-08T07:33:49.389Z,100972.28
2022-10-08T07:36:18.667Z,100970.59
2022-10-08T07:38:45.574Z,100962.28
2022-10-08T07:41:12.642Z,100969.13
2022-10-08T07:43:43.191Z,100967.66
2022-10-08T07:46:11.750Z,100962.50
2022-10-08T07:48:38.762Z,100966.63
2022-10-08T07:51:13.227Z,100965.47
2022-10-08T07:53:40.339Z,100968.75
2022-10-08T07:56:08.156Z,100964.31
2022-10-08T07:58:35.177Z,100969.97
2022-10-08T08:01:03.446Z,100962.09
2022-10-08T08:03:30.207Z,100974.91
2022-10-08T08:06:09.373Z,100967.56
2022-10-08T08:08:37.877Z,100968.88
2022-10-08T08:11:05.837Z,100967.72
2022-10-08T08:13:36.939Z,100976.97
2022-10-08T08:16:09.549Z,100975.66
2022-10-08T08:18:38.724Z,100972.84
2022-10-08T08:21:13.310Z,100980.72
2022-10-08T08:23:45.907Z,100983.44
2022-10-08T08:26:15.294Z,100989.44
2022-10-08T08:28:42.057Z,100991.41
2022-10-08T08:31:14.215Z,100990.00
2022-10-08T08:33:41.452Z,100996.38
2022-10-08T08:36:07.992Z,100994.97
2022-10-08T08:38:38.023Z,100989.75
2022-10-08T08:41:22.900Z,100991.88
2022-10-08T08:43:58.063Z,100988.78
2022-10-08T08:46:25.842Z,100990.72
2022-10-08T08:48:56.254Z,100994.44
2022-10-08T08:51:22.725Z,100999.25
2022-10-08T08:53:49.089Z,100991.97
2022-10-08T08:56:19.492Z,100998.59
2022-10-08T08:59:04.906Z,100989.22
2022-10-08T09:01:42.151Z,101000.59
2022-10-08T09:04:36.044Z,101000.44
2022-10-08T09:07:08.416Z,100996.78
2022-10-08T09:09:42.842Z,101008.41
2022-10-08T09:12:22.925Z,101014.34
2022-10-08T09:14:56.480Z,101025.84
2022-10-08T09:17:35.384Z,101028.94
2022-10-08T09:20:02.065Z,101037.88
2022-10-08T09:22:31.414Z,101030.63
2022-10-08T09:25:06.440Z,101033.50
2022-10-08T09:27:47.415Z,101039.47
2022-10-08T09:30:34.465Z,101041.50
2022-10-08T09:33:05.681Z,101036.63
2022-10-08T09:35:34.692Z,101047.00
2022-10-08T09:38:05.702Z,101047.88
2022-10-08T09:40:32.610Z,101053.31
2022-10-08T09:43:17.498Z,101050.19
2022-10-08T09:45:49.070Z,101059.63
2022-10-08T09:48:24.463Z,101069.09
2022-10-08T09:50:54.804Z,101078.22
2022-10-08T09:53:23.774Z,101073.78
2022-10-08T09:56:01.870Z,101073.78
2022-10-08T09:58:32.201Z,101080.13
2022-10-08T10:01:06.508Z,101083.19
2022-10-08T10:03:35.041Z,101085.22
2022-10-08T10:06:01.939Z,101088.78
2022-10-08T10:09:02.290Z,101084.38
2022-10-08T10:11:35.292Z,101090.66
2022-10-08T10:14:09.186Z,101084.53
2022-10-08T10:16:41.190Z,101097.66
2022-10-08T10:19:18.722Z,101094.75
2022-10-08T10:21:54.622Z,101094.13
2022-10-08T10:25:05.755Z,101101.13
2022-10-08T10:27:40.973Z,101095.72
2022-10-08T10:30:18.125Z,101097.50
2022-10-08T10:33:10.545Z,101096.16
2022-10-08T10:35:45.820Z,101097.13
2022-10-08T10:38:28.263Z,101099.25
2022-10-08T10:41:26.142Z,101099.25
2022-10-08T10:43:57.664Z,101098.91
2022-10-08T10:46:44.004Z,101103.16
2022-10-08T10:49:17.349Z,101105.38
2022-10-08T10:52:02.270Z,101107.25
2022-10-08T10:55:11.633Z,101099.06
2022-10-08T10:58:16.359Z,101109.59
2022-10-08T11:01:01.230Z,101107.56
2022-10-08T11:03:52.285Z,101115.38
2022-10-08T11:06:37.708Z,101122.84
2022-10-08T11:09:27.257Z,101125.13
2022-10-08T11:12:04.244Z,101120.63
2022-10-08T11:14:50.763Z,101121.56
2022-10-08T11:17:32.762Z,101121.47
2022-10-08T11:20:26.864Z,101126.34
2022-10-08T11:23:03.004Z,101119.47
2022-10-08T11:26:20.434Z,101120.81
2022-10-08T11:29:01.306Z,101122.31
2022-10-08T11:31:54.266Z,101116.72
2022-10-08T11:34:26.866Z,101129.75
2022-10-08T11:37:11.991Z,101122.63
2022-10-08T11:40:08.184Z,101114.44
2022-10-08T11:42:46.202Z,101118.72
2022-10-08T11:45:23.114Z,101119.59
2022-10-08T11:47:53.139Z,101118.72
2022-10-08T11:50:22.646Z,101115.69
2022-10-08T11:52:50.305Z,101106.03
2022-10-08T11:55:26.906Z,101104.94
2022-10-08T11:58:08.532Z,101104.44
2022-10-08T12:00:45.095Z,101102.19
2022-10-08T12:03:30.405Z,101116.81
2022-10-08T12:05:59.896Z,101108.13
2022-10-08T12:08:50.433Z,101109.84
2022-10-08T12:11:32.182Z,101114.44
2022-10-08T12:14:10.685Z,101113.34
2022-10-08T12:16:55.517Z,101117.72
2022-10-08T12:19:34.058Z,101117.84
2022-10-08T12:22:02.062Z,101116.53
2022-10-08T12:24:37.671Z,101113.63
2022-10-08T12:27:27.516Z,101127.47
2022-10-08T12:30:11.937Z,101122.63
2022-10-08T12:32:41.372Z,101118.56
2022-10-08T12:35:26.195Z,101117.38
2022-10-08T12:38:21.771Z,101112.31
2022-10-08T12:40:59.502Z,101115.09
2022-10-08T12:43:43.092Z,101118.56
2022-10-08T12:46:24.547Z,101119.09
2022-10-08T12:49:01.689Z,101117.72
2022-10-08T12:51:44.437Z,101117.25
2022-10-08T12:54:20.096Z,101112.13
2022-10-08T12:56:47.693Z,101119.06
2022-10-08T12:59:14.653Z,101124.41
2022-10-08T13:01:43.751Z,101112.47
2022-10-08T13:04:20.658Z,101112.25
2022-10-08T13:06:50.722Z,101110.03
2022-10-08T13:09:33.051Z,101111.84
2022-10-08T13:12:10.551Z,101114.03
2022-10-08T13:14:39.354Z,101110.91
2022-10-08T13:17:06.322Z,101111.75
2022-10-08T13:19:32.623Z,101118.63
2022-10-08T13:22:05.069Z,101124.28
2022-10-08T13:24:37.853Z,101129.06
2022-10-08T13:27:04.663Z,101141.84
2022-10-08T13:29:36.369Z,101141.22
2022-10-08T13:32:11.537Z,101137.13
2022-10-08T13:34:41.037Z,101138.38
2022-10-08T13:37:20.995Z,101142.72
2022-10-08T13:39:53.670Z,101143.72
2022-10-08T13:42:23.380Z,101143.34
2022-10-08T13:44:49.945Z,101145.09
2022-10-08T13:47:18.854Z,101136.91
2022-10-08T13:49:45.823Z,101133.75
2022-10-08T13:52:18.465Z,101137.63
2022-10-08T13:54:45.030Z,101134.97
2022-10-08T13:57:12.138Z,101126.69
2022-10-08T13:59:38.577Z,101133.19
2022-10-08T14:02:05.774Z,101137.13
2022-10-08T14:04:32.179Z,101130.44
2022-10-08T14:07:00.542Z,101138.16
2022-10-08T14:09:28.760Z,101137.19
2022-10-08T14:11:56.854Z,101142.50
2022-10-08T14:14:24.139Z,101160.97
2022-10-08T14:16:51.405Z,101199.84
2022-10-08T14:19:18.536Z,101184.19
2022-10-08T14:21:44.951Z,101196.59
2022-10-08T14:24:12.706Z,101211.38
2022-10-08T14:26:39.140Z,101219.72
2022-10-08T14:29:05.612Z,101232.00
2022-10-08T14:31:32.208Z,101228.47
2022-10-08T14:33:58.651Z,101239.66
2022-10-08T14:36:33.214Z,101253.09
2022-10-08T14:38:59.871Z,101253.03
2022-10-08T14:41:26.472Z,101263.28
2022-10-08T14:43:52.805Z,101260.00
2022-10-08T14:46:19.350Z,101261.56
2022-10-08T14:48:45.667Z,101248.75
2022-10-08T14:51:12.509Z,101251.00
2022-10-08T14:53:39.590Z,101246.00
2022-10-08T14:56:12.508Z,101239.84
2022-10-08T14:58:39.349Z,101238.56
2022-10-08T15:01:06.103Z,101237.28
2022-10-08T15:03:32.633Z,101242.66
2022-10-08T15:06:00.120Z,101235.31
2022-10-08T15:08:27.646Z,101241.41
2022-10-08T15:10:54.138Z,101223.06
2022-10-08T15:13:20.582Z,101231.56
2022-10-08T15:15:46.915Z,101232.72
2022-10-08T15:18:13.358Z,101239.50
2022-10-08T15:20:39.868Z,101236.59
2022-10-08T15:23:07.443Z,101240.72
2022-10-08T15:25:33.961Z,101228.91
2022-10-08T15:28:00.483Z,101242.94
2022-10-08T15:30:26.931Z,101245.25
2022-10-08T15:32:53.693Z,101246.84
2022-10-08T15:35:20.173Z,101248.78
2022-10-08T15:37:47.062Z,101242.84
2022-10-08T15:40:14.005Z,101250.66
2022-10-08T15:42:40.422Z,101244.53
2022-10-08T15:45:07.164Z,101248.00
2022-10-08T15:47:33.575Z,101251.56
2022-10-08T15:50:00.155Z,101255.66
2022-10-08T15:52:26.558Z,101251.69
2022-10-08T15:54:52.996Z,101264.47
2022-10-08T15:57:19.483Z,101267.13
2022-10-08T15:59:45.950Z,101271.59
2022-10-08T16:02:17.084Z,101266.94
2022-10-08T16:04:46.707Z,101263.75
2022-10-08T16:07:13.096Z,101266.66
2022-10-08T16:09:39.510Z,101261.94
2022-10-08T16:12:06.426Z,101270.84
2022-10-08T16:14:32.988Z,101275.63
2022-10-08T16:16:59.421Z,101276.13
2022-10-08T16:19:27.170Z,101284.13
2022-10-08T16:21:56.237Z,101288.25
2022-10-08T16:24:23.700Z,101294.19
2022-10-08T16:26:50.371Z,101295.13
2022-10-08T16:29:18.366Z,101292.34
2022-10-08T16:31:45.968Z,101308.38
2022-10-08T16:34:16.006Z,101307.81
2022-10-08T16:36:42.541Z,101309.97
2022-10-08T16:39:11.551Z,101304.44
2022-10-08T16:41:38.037Z,101325.19
2022-10-08T16:44:12.758Z,101325.09
2022-10-08T16:46:43.242Z,101318.44
2022-10-08T16:49:26.627Z,101330.81
2022-10-08T16:52:01.712Z,101336.72
2022-10-08T16:54:28.616Z,101332.78
2022-10-08T16:56:55.752Z,101329.59
2022-10-08T16:59:24.862Z,101339.34
2022-10-08T17:01:54.155Z,101337.28
2022-10-08T17:04:22.295Z,101332.59
2022-10-08T17:06:48.987Z,101341.31
2022-10-08T17:09:15.487Z,101337.19
2022-10-08T17:11:42.193Z,101346.25
2022-10-08T17:14:10.166Z,101345.78
2022-10-08T17:16:36.889Z,101344.50
2022-10-08T17:19:03.870Z,101354.13
2022-10-08T17:21:31.414Z,101357.81
2022-10-08T17:23:58.881Z,101355.28
2022-10-08T17:26:27.663Z,101363.88
2022-10-08T17:28:54.882Z,101360.00
2022-10-08T17:31:24.546Z,101366.06
2022-10-08T17:33:50.999Z,101369.13
2022-10-08T17:36:22.913Z,101373.72
2022-10-08T17:38:52.656Z,101381.50
2022-10-08T17:41:22.281Z,101380.00
2022-10-08T17:43:50.192Z,101388.69
2022-10-08T17:46:19.096Z,101383.44
2022-10-08T17:48:46.445Z,101384.78
2022-10-08T17:51:15.844Z,101387.03
2022-10-08T17:53:43.536Z,101384.97
2022-10-08T17:56:12.234Z,101383.09
2022-10-08T17:58:39.483Z,101389.19
2022-10-08T18:01:18.034Z,101392.56
2022-10-08T18:03:50.565Z,101403.81
2022-10-08T18:06:17.695Z,101402.16
2022-10-08T18:08:44.089Z,101403.13
2022-10-08T18:11:13.054Z,101407.63
2022-10-08T18:13:39.444Z,101404.31
2022-10-08T18:16:16.993Z,101419.31
2022-10-08T18:18:44.507Z,101426.59
2022-10-08T18:21:16.263Z,101429.09
2022-10-08T18:23:43.006Z,101433.22
2022-10-08T18:26:24.426Z,101437.84
2022-10-08T18:28:53.382Z,101436.97
2022-10-08T18:31:21.459Z,101436.22
2022-10-08T18:33:50.066Z,101441.66
2022-10-08T18:36:19.200Z,101452.75
2022-10-08T18:38:47.855Z,101452.94
2022-10-08T18:41:20.137Z,101452.34
2022-10-08T18:43:48.005Z,101463.25
2022-10-08T18:46:16.275Z,101460.22
2022-10-08T18:48:43.252Z,101466.19
2022-10-08T18:51:13.377Z,101463.25
2022-10-08T18:53:41.534Z,101478.84
2022-10-08T18:56:10.815Z,101480.84
2022-10-08T18:58:38.255Z,101485.75
2022-10-08T19:01:06.056Z,101490.97
2022-10-08T19:03:32.966Z,101491.00
2022-10-08T19:05:59.338Z,101481.28
2022-10-08T19:08:25.791Z,101493.16
2022-10-08T19:10:52.547Z,101492.75
2022-10-08T19:13:19.858Z,101494.38
2022-10-08T19:15:46.430Z,101499.22
2022-10-08T19:18:12.848Z,101504.63
2022-10-08T19:20:39.240Z,101508.16
2022-10-08T19:23:06.148Z,101515.47
2022-10-08T19:25:34.877Z,101511.78
2022-10-08T19:28:01.357Z,101518.88
2022-10-08T19:30:32.932Z,101522.03
2022-10-08T19:32:59.532Z,101523.41
2022-10-08T19:35:25.908Z,101532.50
2022-10-08T19:37:52.294Z,101536.81
2022-10-08T19:40:18.686Z,101534.50
2022-10-08T19:42:45.050Z,101545.56
2022-10-08T19:45:12.495Z,101550.28
2022-10-08T19:47:38.901Z,101547.31
2022-10-08T19:50:05.845Z,101553.06
2022-10-08T19:52:32.222Z,101554.63
2022-10-08T19:54:58.602Z,101562.78
2022-10-08T19:57:24.966Z,101572.41
2022-10-08T19:59:51.366Z,101566.66
2022-10-08T20:02:17.925Z,101576.28
2022-10-08T20:04:46.000Z,101577.00
2022-10-08T20:07:12.638Z,101571.19
2022-10-08T20:09:39.005Z,101575.25
2022-10-08T20:12:05.451Z,101582.97
2022-10-08T20:14:31.916Z,101584.56
2022-10-08T20:16:58.355Z,101584.63
2022-10-08T20:19:24.721Z,101605.91
2022-10-08T20:21:53.422Z,101606.06
2022-10-08T20:24:19.955Z,101604.91
2022-10-08T20:26:46.477Z,101607.69
2022-10-08T20:29:18.388Z,101607.03
2022-10-08T20:31:49.359Z,101609.03
2022-10-08T20:34:18.545Z,101617.06
2022-10-08T20:36:46.179Z,101617.34
2022-10-08T20:39:14.043Z,101617.53
2022-10-08T20:41:41.495Z,101625.50
2022-10-08T20:44:08.030Z,101623.91
2022-10-08T20:46:35.518Z,101626.50
2022-10-08T20:49:02.676Z,101630.38
2022-10-08T20:51:29.817Z,101632.38
2022-10-08T20:54:03.282Z,101637.16
2022-10-08T20:56:34.700Z,101639.59
2022-10-08T20:59:04.161Z,101653.19
2022-10-08T21:01:32.890Z,101657.69
2022-10-08T21:04:03.166Z,101661.56
2022-10-08T21:06:32.081Z,101653.47
2022-10-08T21:08:59.254Z,101651.53
2022-10-08T21:11:28.400Z,101647.31
2022-10-08T21:13:55.720Z,101662.00
2022-10-08T21:16:25.109Z,101653.78
2022-10-08T21:18:53.840Z,101656.19
2022-10-08T21:21:20.637Z,101656.97
2022-10-08T21:23:48.914Z,101661.97
2022-10-08T21:26:15.223Z,101666.19
2022-10-08T21:28:44.133Z,101670.19
2022-10-08T21:31:11.654Z,101666.00
2022-10-08T21:33:39.735Z,101672.59
2022-10-08T21:36:09.027Z,101678.81
2022-10-08T21:38:35.341Z,101676.47
2022-10-08T21:41:13.771Z,101680.34
2022-10-08T21:43:42.341Z,101684.38
2022-10-08T21:46:10.810Z,101699.22
2022-10-08T21:48:37.553Z,101700.19
2022-10-08T21:51:07.660Z,101689.06
2022-10-08T21:53:35.910Z,101695.53
2022-10-08T21:56:05.236Z,101702.16
2022-10-08T21:58:36.482Z,101698.59
2022-10-08T22:01:03.005Z,101700.72
2022-10-08T22:03:29.420Z,101706.81
2022-10-08T22:05:59.256Z,101707.94
2022-10-08T22:08:27.957Z,101702.31
2022-10-08T22:10:55.436Z,101702.41
2022-10-08T22:13:22.341Z,101707.91
2022-10-08T22:15:59.557Z,101711.28
2022-10-08T22:18:31.262Z,101714.88
2022-10-08T22:21:00.756Z,101714.69
2022-10-08T22:23:27.074Z,101709.72
2022-10-08T22:26:00.531Z,101721.28
2022-10-08T22:28:27.965Z,101712.78
2022-10-08T22:30:54.871Z,101723.41
2022-10-08T22:33:21.621Z,101721.31
2022-10-08T22:35:47.978Z,101728.41
2022-10-08T22:38:14.381Z,101730.78
2022-10-08T22:40:40.849Z,101732.44
2022-10-08T22:43:07.412Z,101726.22
2022-10-08T22:45:39.503Z,101732.34
2022-10-08T22:48:05.983Z,101732.75
2022-10-08T22:50:36.229Z,101729.31
2022-10-08T22:53:03.290Z,101734.81
2022-10-08T22:55:29.683Z,101733.03
2022-10-08T22:57:56.926Z,101725.75
2022-10-08T23:00:23.337Z,101723.31
2022-10-08T23:02:50.247Z,101723.50
2022-10-08T23:05:17.127Z,101720.09
2022-10-08T23:07:43.449Z,101726.22
2022-10-08T23:10:09.790Z,101724.56
2022-10-08T23:12:36.090Z,101723.25
2022-10-08T23:15:02.454Z,101726.81
2022-10-08T23:17:28.813Z,101728.59
2022-10-08T23:19:55.151Z,101741.19
2022-10-08T23:22:21.458Z,101733.63
2022-10-08T23:24:47.896Z,101739.75
2022-10-08T23:27:14.323Z,101737.22
2022-10-08T23:29:40.757Z,101743.47
2022-10-08T23:32:07.176Z,101744.34
2022-10-08T23:34:33.548Z,101743.84
2022-10-08T23:36:59.888Z,101744.19
2022-10-08T23:39:26.245Z,101740.16
2022-10-08T23:41:52.570Z,101750.81
2022-10-08T23:44:18.895Z,101747.25
2022-10-08T23:46:45.233Z,101749.00
2022-10-08T23:49:11.562Z,101749.00
2022-10-08T23:51:37.950Z,101755.28
2022-10-08T23:54:04.439Z,101753.69
2022-10-08T23:56:31.079Z,101764.31
2022-10-08T23:58:58.652Z,101765.94
